createdAt,value
2022-12-07T00:01:35.715Z,7.70
2022-12-07T00:04:07.091Z,7.90
2022-12-07T00:06:43.370Z,7.75
2022-12-07T00:09:15.718Z,7.80
2022-12-07T00:11:43.107Z,7.60
2022-12-07T00:14:14.193Z,7.50
2022-12-07T00:16:41.956Z,7.57
2022-12-07T00:19:10.885Z,7.80
2022-12-07T00:21:38.107Z,8.10
2022-12-07T00:24:06.930Z,8.40
2022-12-07T00:26:37.244Z,8.13
2022-12-07T00:29:19.945Z,7.80
2022-12-07T00:31:47.392Z,7.40
2022-12-07T00:34:17.553Z,7.70
2022-12-07T00:36:44.812Z,7.20
2022-12-07T00:39:12.089Z,7.70
2022-12-07T00:41:39.327Z,7.75
2022-12-07T00:44:07.511Z,7.28
2022-12-07T00:46:34.719Z,8.77
2022-12-07T00:49:02.921Z,7.53
2022-12-07T00:51:30.118Z,6.90
2022-12-07T00:54:01.819Z,7.70
2022-12-07T00:56:29.387Z,7.75
2022-12-07T00:59:04.005Z,7.05
2022-12-07T01:01:34.165Z,7.07
2022-12-07T01:04:04.592Z,6.93
2022-12-07T01:06:40.237Z,7.05
2022-12-07T01:09:10.393Z,7.45
2022-12-07T01:11:37.515Z,7.38
2022-12-07T01:14:14.911Z,7.93
2022-12-07T01:16:42.274Z,7.57
2022-12-07T01:19:09.556Z,7.90
2022-12-07T01:21:38.522Z,8.15
2022-12-07T01:24:08.355Z,7.95
2022-12-07T01:26:35.623Z,8.40
2022-12-07T01:29:02.869Z,8.23
2022-12-07T01:31:30.206Z,8.35
2022-12-07T01:33:59.560Z,8.85
2022-12-07T01:36:32.158Z,9.13
2022-12-07T01:39:01.837Z,9.48
2022-12-07T01:41:32.106Z,9.00
2022-12-07T01:44:24.676Z,8.73
2022-12-07T01:47:02.651Z,9.68
2022-12-07T01:49:42.258Z,8.57
2022-12-07T01:52:26.970Z,9.43
2022-12-07T01:57:33.939Z,9.05
2022-12-07T02:00:01.285Z,9.07
2022-12-07T02:02:47.537Z,9.68
2022-12-07T02:05:14.858Z,9.98
2022-12-07T02:07:42.113Z,9.38
2022-12-07T02:10:24.377Z,9.57
2022-12-07T02:13:18.660Z,9.30
2022-12-07T02:16:15.193Z,9.52
2022-12-07T02:19:10.029Z,9.57
2022-12-07T02:22:19.158Z,9.75
2022-12-07T02:25:33.702Z,9.23
2022-12-07T02:28:08.063Z,9.63
2022-12-07T02:30:38.851Z,8.95
2022-12-07T02:33:36.012Z,9.82
2022-12-07T02:36:27.550Z,8.70
2022-12-07T02:39:01.471Z,10.05
2022-12-07T02:41:35.145Z,9.10
2022-12-07T02:44:06.056Z,9.15
2022-12-07T02:47:05.007Z,10.80
2022-12-07T02:49:32.242Z,10.73
2022-12-07T02:51:59.505Z,10.10
2022-12-07T02:54:26.753Z,10.27
2022-12-07T02:57:05.080Z,9.93
2022-12-07T03:00:12.464Z,10.32
2022-12-07T03:03:00.325Z,10.55
2022-12-07T03:05:50.567Z,10.45
2022-12-07T03:08:52.783Z,11.00
2022-12-07T03:11:36.054Z,11.90
2022-12-07T03:14:21.135Z,10.38
2022-12-07T03:17:00.561Z,10.50
2022-12-07T03:19:28.089Z,11.18
2022-12-07T03:22:03.012Z,11.25
2022-12-07T03:24:44.163Z,11.88
2022-12-07T03:27:16.811Z,10.38
2022-12-07T03:30:13.950Z,10.73
2022-12-07T03:32:46.094Z,10.30
2022-12-07T03:35:44.671Z,9.98
2022-12-07T03:38:22.036Z,10.07
2022-12-07T03:41:07.658Z,10.30
2022-12-07T03:43:34.830Z,11.00
2022-12-07T03:46:19.723Z,10.38
2022-12-07T03:49:00.695Z,10.32
2022-12-07T03:51:51.252Z,10.15
2022-12-07T03:54:31.986Z,9.55
2022-12-07T03:56:59.533Z,9.15
2022-12-07T03:59:27.026Z,8.85
2022-12-07T04:01:56.483Z,8.30
2022-12-07T04:04:26.530Z,8.95
2022-12-07T04:06:53.786Z,9.02
2022-12-07T04:09:21.169Z,9.70
2022-12-07T04:11:48.533Z,9.23
2022-12-07T04:14:21.852Z,8.40
2022-12-07T04:16:50.807Z,7.67
2022-12-07T04:19:19.718Z,8.18
2022-12-07T04:21:47.233Z,8.70
2022-12-07T04:24:15.182Z,8.15
2022-12-07T04:26:43.178Z,8.20
2022-12-07T04:29:10.940Z,9.18
2022-12-07T04:31:38.369Z,8.10
2022-12-07T04:34:05.879Z,8.90
2022-12-07T04:36:33.331Z,8.07
2022-12-07T04:39:00.689Z,7.97
2022-12-07T04:41:28.047Z,8.02
2022-12-07T04:44:01.420Z,7.88
2022-12-07T04:46:29.778Z,6.57
2022-12-07T04:48:57.021Z,7.40
2022-12-07T04:51:27.012Z,7.80
2022-12-07T04:53:54.507Z,7.55
2022-12-07T04:56:23.993Z,8.07
2022-12-07T04:58:52.417Z,6.70
2022-12-07T05:01:19.741Z,6.93
2022-12-07T05:03:47.198Z,8.25
2022-12-07T05:06:14.784Z,6.82
2022-12-07T05:08:42.154Z,6.90
2022-12-07T05:11:09.486Z,6.88
2022-12-07T05:13:37.086Z,7.25
2022-12-07T05:16:04.566Z,7.65
2022-12-07T05:18:31.906Z,6.80
2022-12-07T05:20:59.107Z,7.05
2022-12-07T05:23:26.289Z,7.07
2022-12-07T05:25:53.362Z,8.75
2022-12-07T05:28:20.576Z,7.68
2022-12-07T05:30:47.841Z,7.35
2022-12-07T05:33:15.106Z,8.05
2022-12-07T05:35:42.310Z,7.68
2022-12-07T05:38:09.462Z,7.45
2022-12-07T05:40:37.715Z,6.78
2022-12-07T05:43:05.157Z,7.28
2022-12-07T05:45:32.447Z,7.05
2022-12-07T05:47:59.699Z,8.32
2022-12-07T05:50:26.874Z,6.82
2022-12-07T05:53:01.267Z,6.15
2022-12-07T05:55:28.526Z,6.38
2022-12-07T05:58:14.376Z,6.20
2022-12-07T06:00:41.580Z,6.70
2022-12-07T06:03:09.585Z,6.32
2022-12-07T06:05:39.110Z,6.65
2022-12-07T06:08:06.436Z,6.47
2022-12-07T06:10:33.763Z,6.43
2022-12-07T06:13:00.912Z,6.25
2022-12-07T06:15:30.735Z,5.90
2022-12-07T06:17:57.990Z,5.90
2022-12-07T06:20:25.142Z,5.68
2022-12-07T06:22:52.293Z,5.40
2022-12-07T06:25:19.547Z,6.30
2022-12-07T06:27:46.708Z,6.22
2022-12-07T06:30:14.084Z,5.28
2022-12-07T06:32:41.671Z,5.05
2022-12-07T06:35:09.211Z,5.55
2022-12-07T06:37:36.427Z,5.00
2022-12-07T06:40:05.870Z,4.82
2022-12-07T06:42:36.429Z,6.07
2022-12-07T06:45:03.900Z,6.35
2022-12-07T06:47:40.419Z,5.57
2022-12-07T06:50:08.789Z,5.43
2022-12-07T06:52:38.768Z,5.18
2022-12-07T06:55:06.641Z,5.35
2022-12-07T06:57:33.880Z,4.55
2022-12-07T07:00:06.046Z,4.18
2022-12-07T07:02:33.574Z,3.70
2022-12-07T07:05:00.771Z,3.95
2022-12-07T07:07:28.222Z,3.65
2022-12-07T07:09:55.389Z,4.25
2022-12-07T07:12:22.530Z,4.18
2022-12-07T07:14:52.212Z,3.70
2022-12-07T07:17:19.413Z,4.30
2022-12-07T07:19:49.009Z,3.80
2022-12-07T07:22:19.086Z,4.38
2022-12-07T07:24:46.505Z,4.40
2022-12-07T07:27:13.628Z,4.10
2022-12-07T07:29:40.786Z,4.00
2022-12-07T07:32:08.637Z,3.72
2022-12-07T07:34:35.876Z,4.32
2022-12-07T07:37:03.134Z,4.40
2022-12-07T07:39:30.319Z,4.50
2022-12-07T07:41:57.434Z,4.55
2022-12-07T07:44:33.212Z,4.32
2022-12-07T07:47:02.139Z,4.93
2022-12-07T07:49:29.323Z,3.85
2022-12-07T07:51:56.482Z,4.80
2022-12-07T07:54:23.636Z,4.72
2022-12-07T07:56:50.811Z,4.78
2022-12-07T07:59:18.001Z,4.93
2022-12-07T08:01:45.151Z,5.03
2022-12-07T08:04:12.446Z,5.15
2022-12-07T08:06:39.605Z,5.20
2022-12-07T08:09:07.524Z,5.53
2022-12-07T08:11:35.324Z,4.78
2022-12-07T08:14:02.552Z,5.20
2022-12-07T08:16:29.841Z,4.70
2022-12-07T08:18:57.382Z,4.65
2022-12-07T08:21:24.594Z,4.45
2022-12-07T08:23:51.728Z,4.25
2022-12-07T08:26:18.904Z,4.63
2022-12-07T08:28:46.303Z,4.47
2022-12-07T08:31:16.530Z,4.40
2022-12-07T08:33:45.116Z,5.10
2022-12-07T08:36:13.038Z,4.20
2022-12-07T08:38:42.992Z,4.65
2022-12-07T08:41:19.037Z,4.43
2022-12-07T08:43:46.575Z,4.20
2022-12-07T08:46:24.979Z,4.45
2022-12-07T08:49:19.937Z,4.60
2022-12-07T08:51:47.195Z,4.60
2022-12-07T08:54:17.318Z,4.63
2022-12-07T08:56:45.504Z,4.45
2022-12-07T08:59:13.742Z,3.90
2022-12-07T09:01:40.997Z,4.03
2022-12-07T09:04:08.339Z,4.88
2022-12-07T09:06:35.589Z,4.32
2022-12-07T09:09:05.405Z,4.60
2022-12-07T09:11:32.703Z,3.92
2022-12-07T09:13:59.882Z,4.10
2022-12-07T09:16:27.251Z,4.57
2022-12-07T09:18:54.460Z,4.15
2022-12-07T09:21:21.633Z,4.68
2022-12-07T09:23:48.780Z,3.78
2022-12-07T09:26:15.932Z,3.85
2022-12-07T09:28:43.157Z,4.10
2022-12-07T09:31:26.454Z,5.03
2022-12-07T09:34:01.022Z,4.10
2022-12-07T09:36:28.798Z,3.75
2022-12-07T09:38:56.204Z,4.07
2022-12-07T09:41:24.412Z,3.90
2022-12-07T09:43:51.832Z,4.38
2022-12-07T09:46:20.065Z,3.85
2022-12-07T09:48:47.533Z,4.68
2022-12-07T09:51:22.772Z,4.28
2022-12-07T09:53:52.166Z,4.70
2022-12-07T09:56:19.771Z,3.65
2022-12-07T09:58:47.031Z,4.13
2022-12-07T10:01:17.724Z,4.32
2022-12-07T10:03:55.309Z,4.15
2022-12-07T10:06:22.512Z,4.45
2022-12-07T10:08:49.715Z,4.38
2022-12-07T10:11:20.103Z,4.28
2022-12-07T10:13:55.105Z,4.10
2022-12-07T10:16:25.359Z,4.20
2022-12-07T10:18:52.703Z,4.38
2022-12-07T10:21:22.078Z,3.90
2022-12-07T10:24:20.396Z,3.78
2022-12-07T10:26:47.455Z,4.22
2022-12-07T10:29:38.567Z,4.38
2022-12-07T10:32:17.791Z,4.30
2022-12-07T10:34:50.508Z,4.03
2022-12-07T10:37:26.821Z,3.47
2022-12-07T10:39:57.258Z,3.78
2022-12-07T10:42:30.084Z,3.67
2022-12-07T10:45:11.238Z,3.17
2022-12-07T10:47:52.668Z,4.05
2022-12-07T10:50:47.631Z,3.60
2022-12-07T10:56:51.160Z,3.40
2022-12-07T10:59:56.034Z,3.80
2022-12-07T11:03:00.886Z,3.00
2022-12-07T11:05:39.540Z,3.15
2022-12-07T11:08:59.761Z,3.90
2022-12-07T11:11:45.125Z,3.90
2022-12-07T11:14:40.653Z,3.72
2022-12-07T11:17:40.974Z,3.78
2022-12-07T11:21:02.197Z,4.20
2022-12-07T11:24:09.989Z,5.03
2022-12-07T11:27:06.883Z,4.40
2022-12-07T11:29:59.742Z,4.43
2022-12-07T11:33:02.594Z,4.72
2022-12-07T11:36:26.110Z,4.63
2022-12-07T11:38:58.546Z,4.15
2022-12-07T11:41:31.083Z,4.57
2022-12-07T11:44:54.392Z,4.95
2022-12-07T11:47:31.535Z,5.30
2022-12-07T11:50:30.489Z,5.25
2022-12-07T11:53:00.744Z,5.10
2022-12-07T11:55:33.706Z,5.57
2022-12-07T11:58:54.656Z,5.70
2022-12-07T12:01:56.634Z,5.68
2022-12-07T12:04:34.017Z,5.20
2022-12-07T12:10:04.298Z,5.25
2022-12-07T12:16:43.309Z,5.15
2022-12-07T12:19:45.809Z,5.28
2022-12-07T12:22:20.435Z,5.22
2022-12-07T12:24:52.429Z,5.40
2022-12-07T12:27:32.541Z,4.85
2022-12-07T12:30:02.712Z,4.60
2022-12-07T12:32:43.700Z,5.35
2022-12-07T12:35:32.050Z,4.80
2022-12-07T12:38:45.769Z,5.60
2022-12-07T12:41:48.382Z,6.00
2022-12-07T12:44:21.084Z,5.78
2022-12-07T12:47:02.910Z,6.50
2022-12-07T12:49:30.094Z,6.25
2022-12-07T12:52:24.122Z,5.70
2022-12-07T12:55:09.587Z,6.47
2022-12-07T12:57:37.071Z,6.93
2022-12-07T13:00:18.884Z,6.95
2022-12-07T13:02:56.655Z,6.57
2022-12-07T13:05:30.803Z,6.60
2022-12-07T13:08:20.501Z,6.60
2022-12-07T13:10:50.631Z,6.50
2022-12-07T13:13:20.723Z,7.18
2022-12-07T13:15:53.144Z,7.15
2022-12-07T13:18:33.239Z,6.82
2022-12-07T13:21:09.497Z,6.80
2022-12-07T13:23:51.087Z,6.57
2022-12-07T13:26:30.619Z,7.07
2022-12-07T13:29:24.281Z,6.22
2022-12-07T13:31:59.838Z,6.95
2022-12-07T13:34:39.576Z,6.53
2022-12-07T13:37:15.239Z,6.80
2022-12-07T13:40:00.229Z,7.13
2022-12-07T13:42:32.645Z,7.47
2022-12-07T13:45:02.255Z,7.03
2022-12-07T13:47:38.295Z,6.82
2022-12-07T13:50:29.166Z,7.50
2022-12-07T13:52:57.983Z,6.70
2022-12-07T13:55:29.431Z,7.28
2022-12-07T13:57:56.641Z,7.25
2022-12-07T14:00:26.204Z,7.10
2022-12-07T14:03:01.459Z,7.28
2022-12-07T14:05:31.228Z,7.38
2022-12-07T14:08:04.282Z,7.07
2022-12-07T14:10:41.827Z,7.88
2022-12-07T14:14:00.794Z,7.43
2022-12-07T14:16:36.612Z,13.32
2022-12-07T14:19:07.153Z,8.52
2022-12-07T14:21:35.075Z,8.23
2022-12-07T14:24:20.086Z,8.07
2022-12-07T14:26:50.311Z,8.30
2022-12-07T14:29:28.860Z,9.75
2022-12-07T14:31:57.262Z,7.75
2022-12-07T14:34:24.675Z,8.32
2022-12-07T14:36:52.004Z,7.82
2022-12-07T14:39:19.298Z,7.88
2022-12-07T14:41:54.169Z,8.13
2022-12-07T14:44:32.044Z,8.85
2022-12-07T14:49:49.755Z,6.47
2022-12-07T14:55:34.250Z,6.28
2022-12-07T14:58:02.042Z,6.22
2022-12-07T15:00:32.315Z,5.75
2022-12-07T15:03:04.379Z,5.68
2022-12-07T15:05:31.679Z,5.90
2022-12-07T15:08:00.159Z,5.15
2022-12-07T15:10:34.710Z,5.03
2022-12-07T15:13:21.924Z,5.20
2022-12-07T15:15:50.865Z,5.70
2022-12-07T15:18:18.461Z,6.03
2022-12-07T15:20:48.565Z,4.72
2022-12-07T15:23:16.309Z,5.15
2022-12-07T15:25:48.451Z,5.53
2022-12-07T15:28:16.822Z,4.72
2022-12-07T15:30:44.553Z,6.20
2022-12-07T15:33:15.912Z,5.60
2022-12-07T15:35:44.493Z,6.05
2022-12-07T15:38:12.116Z,5.03
2022-12-07T15:40:39.250Z,5.82
2022-12-07T15:43:26.485Z,6.03
2022-12-07T15:45:53.772Z,5.82
2022-12-07T15:48:29.199Z,6.13
2022-12-07T15:51:07.351Z,5.90
2022-12-07T15:53:35.163Z,6.22
2022-12-07T15:56:02.641Z,6.22
2022-12-07T15:58:29.825Z,5.88
2022-12-07T16:00:56.990Z,5.72
2022-12-07T16:03:24.178Z,6.65
2022-12-07T16:05:52.713Z,6.68
2022-12-07T16:08:24.414Z,6.53
2022-12-07T16:11:13.285Z,6.25
2022-12-07T16:13:42.951Z,5.80
2022-12-07T16:16:16.055Z,6.07
2022-12-07T16:18:44.185Z,6.85
2022-12-07T16:21:11.434Z,6.18
2022-12-07T16:23:38.764Z,6.75
2022-12-07T16:26:24.636Z,6.40
2022-12-07T16:28:52.871Z,7.00
2022-12-07T16:31:22.772Z,6.93
2022-12-07T16:33:50.247Z,6.55
2022-12-07T16:36:34.004Z,6.90
2022-12-07T16:39:05.388Z,7.45
2022-12-07T16:41:32.785Z,6.85
2022-12-07T16:44:05.075Z,7.63
2022-12-07T16:46:36.712Z,7.68
2022-12-07T16:49:04.727Z,7.22
2022-12-07T16:51:32.109Z,7.18
2022-12-07T16:53:59.790Z,7.50
2022-12-07T16:56:27.898Z,8.25
2022-12-07T16:58:55.770Z,8.45
2022-12-07T17:01:23.743Z,7.90
2022-12-07T17:03:51.253Z,8.73
2022-12-07T17:06:23.997Z,7.85
2022-12-07T17:08:51.481Z,8.25
2022-12-07T17:11:29.881Z,8.30
2022-12-07T17:14:15.823Z,8.23
2022-12-07T17:16:43.063Z,7.25
2022-12-07T17:19:16.182Z,7.68
2022-12-07T17:21:43.614Z,7.10
2022-12-07T17:24:12.147Z,8.10
2022-12-07T17:26:42.522Z,7.43
2022-12-07T17:29:13.356Z,7.20
2022-12-07T17:31:42.097Z,6.75
2022-12-07T17:34:13.181Z,7.47
2022-12-07T17:36:40.720Z,7.30
2022-12-07T17:39:11.413Z,6.55
2022-12-07T17:41:57.362Z,7.90
2022-12-07T17:44:24.709Z,7.18
2022-12-07T17:46:58.955Z,6.38
2022-12-07T17:49:26.733Z,6.75
2022-12-07T17:52:13.011Z,7.10
2022-12-07T17:54:42.059Z,7.50
2022-12-07T17:57:09.298Z,7.25
2022-12-07T17:59:36.483Z,9.02
2022-12-07T18:02:03.896Z,7.85
2022-12-07T18:04:31.037Z,7.18
2022-12-07T18:06:58.571Z,6.72
2022-12-07T18:09:25.751Z,7.43
2022-12-07T18:11:53.108Z,7.18
2022-12-07T18:14:20.331Z,6.53
2022-12-07T18:16:47.595Z,6.38
2022-12-07T18:19:15.902Z,6.35
2022-12-07T18:21:43.348Z,6.35
2022-12-07T18:24:15.101Z,6.53
2022-12-07T18:26:42.375Z,7.57
2022-12-07T18:29:11.006Z,6.93
2022-12-07T18:31:38.279Z,6.07
2022-12-07T18:34:14.623Z,6.03
2022-12-07T18:36:43.902Z,5.60
2022-12-07T18:39:11.151Z,5.50
2022-12-07T18:41:39.520Z,5.47
2022-12-07T18:44:06.869Z,5.15
2022-12-07T18:46:35.027Z,5.00
2022-12-07T18:49:04.270Z,4.95
2022-12-07T18:51:32.555Z,4.93
2022-12-07T18:54:01.218Z,5.47
2022-12-07T18:56:28.745Z,5.43
2022-12-07T18:59:19.728Z,5.05
2022-12-07T19:01:53.741Z,5.18
2022-12-07T19:04:21.161Z,4.25
2022-12-07T19:06:48.710Z,4.35
2022-12-07T19:09:16.665Z,4.60
2022-12-07T19:11:50.295Z,4.25
2022-12-07T19:14:33.540Z,4.63
2022-12-07T19:17:04.027Z,4.18
2022-12-07T19:19:44.554Z,4.40
2022-12-07T19:22:14.110Z,3.97
2022-12-07T19:24:41.308Z,4.85
2022-12-07T19:27:08.829Z,4.13
2022-12-07T19:29:36.039Z,3.80
2022-12-07T19:32:04.992Z,4.28
2022-12-07T19:34:32.225Z,4.38
2022-12-07T19:36:59.445Z,4.03
2022-12-07T19:39:26.611Z,4.45
2022-12-07T19:41:53.819Z,4.80
2022-12-07T19:44:25.572Z,4.25
2022-12-07T19:46:58.374Z,3.78
2022-12-07T19:49:34.308Z,3.47
2022-12-07T19:52:06.440Z,4.00
2022-12-07T19:54:34.055Z,4.10
2022-12-07T19:57:01.269Z,3.92
2022-12-07T19:59:29.625Z,4.35
2022-12-07T20:01:57.088Z,4.20
2022-12-07T20:04:26.798Z,4.10
2022-12-07T20:06:59.611Z,4.00
2022-12-07T20:09:27.195Z,3.85
2022-12-07T20:12:12.987Z,4.85
2022-12-07T20:14:40.507Z,4.38
2022-12-07T20:17:08.015Z,3.80
2022-12-07T20:19:38.627Z,4.22
2022-12-07T20:22:06.094Z,4.32
2022-12-07T20:24:35.118Z,4.85
2022-12-07T20:27:02.496Z,4.57
2022-12-07T20:29:29.737Z,4.50
2022-12-07T20:31:57.992Z,5.70
2022-12-07T20:34:26.391Z,5.47
2022-12-07T20:36:54.779Z,5.22
2022-12-07T20:39:23.577Z,5.43
2022-12-07T20:42:09.624Z,5.82
2022-12-07T20:44:36.878Z,6.13
2022-12-07T20:47:05.867Z,5.00
2022-12-07T20:49:33.379Z,5.07
2022-12-07T20:52:01.816Z,6.15
2022-12-07T20:54:29.010Z,5.72
2022-12-07T20:56:56.365Z,5.47
2022-12-07T20:59:23.597Z,6.43
2022-12-07T21:01:50.871Z,6.10
2022-12-07T21:04:18.396Z,6.20
2022-12-07T21:06:46.004Z,6.20
2022-12-07T21:09:13.273Z,6.68
2022-12-07T21:11:40.491Z,6.22
2022-12-07T21:14:08.160Z,6.63
2022-12-07T21:16:35.476Z,6.47
2022-12-07T21:19:07.820Z,6.32
2022-12-07T21:21:35.215Z,6.95
2022-12-07T21:24:05.571Z,6.35
2022-12-07T21:26:35.829Z,7.25
2022-12-07T21:29:04.998Z,6.53
2022-12-07T21:31:32.527Z,6.43
2022-12-07T21:34:02.167Z,6.63
2022-12-07T21:36:29.402Z,6.55
2022-12-07T21:38:57.077Z,5.65
2022-12-07T21:41:32.362Z,5.95
2022-12-07T21:44:03.117Z,5.63
2022-12-07T21:46:34.592Z,5.90
2022-12-07T21:49:09.573Z,5.57
2022-12-07T21:51:44.875Z,6.35
2022-12-07T21:54:13.924Z,6.70
2022-12-07T21:56:45.833Z,6.85
2022-12-07T21:59:15.903Z,6.65
2022-12-07T22:01:47.853Z,6.60
2022-12-07T22:04:22.286Z,6.07
2022-12-07T22:06:52.335Z,7.03
2022-12-07T22:09:23.343Z,6.90
2022-12-07T22:11:50.616Z,7.47
2022-12-07T22:14:39.003Z,7.97
2022-12-07T22:17:10.399Z,7.22
2022-12-07T22:19:40.139Z,6.63
2022-12-07T22:22:09.654Z,7.55
2022-12-07T22:24:36.823Z,7.45
2022-12-07T22:27:09.330Z,7.75
2022-12-07T22:29:36.693Z,7.32
2022-12-07T22:32:31.947Z,6.38
2022-12-07T22:34:56.033Z,6.78
2022-12-07T22:37:23.257Z,7.22
2022-12-07T22:39:50.704Z,8.13
2022-12-07T22:42:17.923Z,7.20
2022-12-07T22:44:45.250Z,8.00
2022-12-07T22:47:16.367Z,7.60
2022-12-07T22:49:43.689Z,8.35
2022-12-07T22:52:12.030Z,7.25
2022-12-07T22:54:42.124Z,8.23
2022-12-07T22:57:09.377Z,7.97
2022-12-07T22:59:36.611Z,7.45
2022-12-07T23:02:03.919Z,6.40
2022-12-07T23:04:31.261Z,7.10
2022-12-07T23:07:04.472Z,6.35
2022-12-07T23:09:31.607Z,7.25
2022-12-07T23:12:17.236Z,6.88
2022-12-07T23:14:44.759Z,6.53
2022-12-07T23:17:13.063Z,7.57
2022-12-07T23:19:43.027Z,6.60
2022-12-07T23:22:10.284Z,8.10
2022-12-07T23:24:37.530Z,7.07
2022-12-07T23:27:04.809Z,6.32
2022-12-07T23:29:31.965Z,6.63
2022-12-07T23:31:59.184Z,6.55
2022-12-07T23:34:26.485Z,6.22
2022-12-07T23:36:53.689Z,7.07
2022-12-07T23:39:20.887Z,6.82
2022-12-07T23:41:48.036Z,7.05
2022-12-07T23:44:15.211Z,6.63
2022-12-07T23:46:42.490Z,6.95
2022-12-07T23:49:10.673Z,6.97
2022-12-07T23:51:37.769Z,7.00
2022-12-07T23:54:05.235Z,7.28
2022-12-07T23:56:33.550Z,6.50
2022-12-07T23:59:00.918Z,6.78
